createdAt,value
2022-12-05T00:01:35.931Z,50.21
2022-12-05T00:04:05.864Z,49.78
2022-12-05T00:06:35.468Z,50.04
2022-12-05T00:09:02.147Z,49.26
2022-12-05T00:11:33.212Z,49.87
2022-12-05T00:14:01.020Z,49.97
2022-12-05T00:16:30.654Z,50.00
2022-12-05T00:19:01.715Z,49.97
2022-12-05T00:21:30.337Z,50.03
2022-12-05T00:23:59.469Z,49.41
2022-12-05T00:26:26.866Z,50.29
2022-12-05T00:28:55.770Z,50.01
2022-12-05T00:31:23.806Z,49.47
2022-12-05T00:33:51.312Z,50.35
2022-12-05T00:36:21.441Z,50.57
2022-12-05T00:38:48.365Z,49.73
2022-12-05T00:41:18.925Z,50.04
2022-12-05T00:43:46.683Z,49.87
2022-12-05T00:46:20.318Z,49.94
2022-12-05T00:48:47.313Z,50.37
2022-12-05T00:51:19.815Z,50.26
2022-12-05T00:53:47.233Z,50.05
2022-12-05T00:56:17.096Z,50.50
2022-12-05T00:58:46.194Z,49.95
2022-12-05T01:01:14.622Z,50.16
2022-12-05T01:03:41.765Z,50.04
2022-12-05T01:06:08.490Z,49.71
2022-12-05T01:08:35.684Z,49.68
2022-12-05T01:11:03.127Z,49.95
2022-12-05T01:13:33.464Z,49.88
2022-12-05T01:16:00.176Z,49.91
2022-12-05T01:18:27.402Z,50.34
2022-12-05T01:20:54.235Z,50.07
2022-12-05T01:23:21.548Z,49.73
2022-12-05T01:25:49.762Z,49.71
2022-12-05T01:28:17.023Z,50.14
2022-12-05T01:30:45.911Z,50.33
2022-12-05T01:33:12.553Z,50.51
2022-12-05T01:35:42.405Z,50.30
2022-12-05T01:38:11.451Z,50.05
2022-12-05T01:40:40.225Z,50.11
2022-12-05T01:43:14.454Z,50.37
2022-12-05T01:45:43.270Z,50.15
2022-12-05T01:48:19.420Z,50.78
2022-12-05T01:50:47.808Z,49.83
2022-12-05T01:53:15.483Z,50.27
2022-12-05T01:55:42.735Z,50.55
2022-12-05T01:58:10.238Z,49.99
2022-12-05T02:00:36.598Z,50.52
2022-12-05T02:03:08.346Z,50.68
2022-12-05T02:05:36.867Z,51.20
2022-12-05T02:08:05.115Z,51.01
2022-12-05T02:10:36.341Z,50.69
2022-12-05T02:13:30.083Z,50.64
2022-12-05T02:16:02.661Z,50.84
2022-12-05T02:18:34.360Z,50.62
2022-12-05T02:21:41.180Z,50.99
2022-12-05T02:24:27.081Z,51.19
2022-12-05T02:27:07.920Z,50.24
2022-12-05T02:30:04.538Z,50.96
2022-12-05T02:32:45.937Z,51.08
2022-12-05T02:35:18.530Z,51.10
2022-12-05T02:38:15.495Z,51.16
2022-12-05T02:41:19.403Z,50.97
2022-12-05T02:44:02.147Z,50.76
2022-12-05T02:46:31.088Z,50.66
2022-12-05T02:49:05.870Z,50.40
2022-12-05T02:51:38.024Z,51.37
2022-12-05T02:54:10.161Z,51.07
2022-12-05T02:56:37.327Z,50.48
2022-12-05T02:59:04.305Z,51.10
2022-12-05T03:01:32.665Z,50.80
2022-12-05T03:04:03.005Z,50.60
2022-12-05T03:06:37.031Z,51.38
2022-12-05T03:09:14.592Z,51.07
2022-12-05T03:11:49.562Z,51.08
2022-12-05T03:14:22.747Z,50.87
2022-12-05T03:16:52.176Z,51.09
2022-12-05T03:19:27.084Z,51.68
2022-12-05T03:22:08.582Z,51.49
2022-12-05T03:24:37.619Z,50.82
2022-12-05T03:27:30.825Z,51.32
2022-12-05T03:30:05.816Z,51.35
2022-12-05T03:32:35.595Z,51.27
2022-12-05T03:35:11.116Z,51.19
2022-12-05T03:37:50.123Z,51.11
2022-12-05T03:40:32.273Z,50.96
2022-12-05T03:43:09.782Z,51.32
2022-12-05T03:45:47.932Z,50.83
2022-12-05T03:48:23.866Z,50.91
2022-12-05T03:50:53.796Z,51.02
2022-12-05T03:53:28.847Z,50.56
2022-12-05T03:56:06.375Z,51.46
2022-12-05T03:58:56.730Z,51.19
2022-12-05T04:01:28.138Z,50.95
2022-12-05T04:04:09.515Z,51.00
2022-12-05T04:06:40.052Z,50.75
2022-12-05T04:09:23.249Z,51.13
2022-12-05T04:12:02.263Z,51.17
2022-12-05T04:14:35.186Z,50.72
2022-12-05T04:17:06.722Z,50.83
2022-12-05T04:20:13.759Z,51.72
2022-12-05T04:22:41.248Z,50.91
2022-12-05T04:25:30.867Z,51.26
2022-12-05T04:28:21.909Z,51.07
2022-12-05T04:31:35.929Z,51.42
2022-12-05T04:34:08.444Z,50.75
2022-12-05T04:36:41.984Z,51.14
2022-12-05T04:39:18.029Z,51.57
2022-12-05T04:42:08.969Z,51.14
2022-12-05T04:44:42.632Z,50.68
2022-12-05T04:47:10.992Z,50.78
2022-12-05T04:49:40.869Z,51.16
2022-12-05T04:52:11.911Z,50.91
2022-12-05T04:54:57.310Z,50.96
2022-12-05T04:57:33.880Z,50.93
2022-12-05T05:00:00.746Z,50.50
2022-12-05T05:02:41.388Z,50.81
2022-12-05T05:05:14.161Z,51.52
2022-12-05T05:07:49.808Z,51.36
2022-12-05T05:10:34.230Z,50.98
2022-12-05T05:13:00.766Z,50.97
2022-12-05T05:15:27.073Z,50.72
2022-12-05T05:17:53.388Z,51.12
2022-12-05T05:20:27.045Z,50.49
2022-12-05T05:22:58.092Z,50.61
2022-12-05T05:25:25.723Z,51.34
2022-12-05T05:27:54.831Z,50.67
2022-12-05T05:30:24.410Z,50.60
2022-12-05T05:32:51.091Z,51.07
2022-12-05T05:35:17.577Z,51.07
2022-12-05T05:37:44.178Z,50.73
2022-12-05T05:40:12.338Z,51.18
2022-12-05T05:42:44.855Z,51.00
2022-12-05T05:45:12.991Z,50.97
2022-12-05T05:47:39.809Z,50.85
2022-12-05T05:50:06.973Z,51.27
2022-12-05T05:52:35.572Z,51.20
2022-12-05T05:55:02.999Z,50.81
2022-12-05T05:57:30.791Z,51.62
2022-12-05T05:59:57.410Z,51.12
2022-12-05T06:02:24.246Z,51.40
2022-12-05T06:04:51.143Z,51.36
2022-12-05T06:07:17.585Z,50.77
2022-12-05T06:09:43.903Z,51.74
2022-12-05T06:12:10.339Z,51.71
2022-12-05T06:14:36.647Z,51.87
2022-12-05T06:17:02.997Z,51.84
2022-12-05T06:19:31.739Z,51.44
2022-12-05T06:21:58.301Z,51.93
2022-12-05T06:24:24.690Z,51.70
2022-12-05T06:26:51.374Z,50.82
2022-12-05T06:29:21.608Z,50.70
2022-12-05T06:31:50.934Z,50.79
2022-12-05T06:34:17.474Z,50.86
2022-12-05T06:36:43.890Z,50.71
2022-12-05T06:39:10.381Z,50.83
2022-12-05T06:41:37.085Z,50.31
2022-12-05T06:44:03.608Z,50.74
2022-12-05T06:46:30.513Z,50.73
2022-12-05T06:48:57.792Z,50.92
2022-12-05T06:51:24.775Z,50.35
2022-12-05T06:53:51.139Z,50.49
2022-12-05T06:56:19.804Z,50.52
2022-12-05T06:58:53.835Z,50.54
2022-12-05T07:01:42.122Z,51.11
2022-12-05T07:04:25.762Z,51.31
2022-12-05T07:06:54.207Z,51.07
2022-12-05T07:09:21.819Z,51.21
2022-12-05T07:11:51.360Z,50.47
2022-12-05T07:14:45.406Z,51.06
2022-12-05T07:17:05.197Z,50.74
2022-12-05T07:19:32.289Z,51.26
2022-12-05T07:21:58.824Z,50.96
2022-12-05T07:24:25.547Z,51.28
2022-12-05T07:26:52.048Z,51.46
2022-12-05T07:29:18.684Z,51.48
2022-12-05T07:31:45.514Z,51.06
2022-12-05T07:34:12.146Z,51.33
2022-12-05T07:36:38.749Z,51.33
2022-12-05T07:39:05.154Z,50.96
2022-12-05T07:41:33.462Z,51.43
2022-12-05T07:44:00.442Z,50.71
2022-12-05T07:46:28.577Z,51.24
2022-12-05T07:48:55.430Z,51.08
2022-12-05T07:51:22.483Z,51.45
2022-12-05T07:53:49.092Z,51.43
2022-12-05T07:56:17.481Z,51.11
2022-12-05T07:58:45.674Z,51.41
2022-12-05T08:01:16.308Z,51.08
2022-12-05T08:03:44.321Z,51.36
2022-12-05T08:06:18.196Z,51.73
2022-12-05T08:08:44.988Z,51.28
2022-12-05T08:11:17.172Z,51.54
2022-12-05T08:13:44.069Z,51.17
2022-12-05T08:16:14.600Z,51.30
2022-12-05T08:18:41.676Z,50.83
2022-12-05T08:21:12.111Z,51.27
2022-12-05T08:23:39.829Z,51.25
2022-12-05T08:26:13.785Z,51.34
2022-12-05T08:28:40.835Z,51.01
2022-12-05T08:31:10.866Z,51.14
2022-12-05T08:33:38.180Z,51.46
2022-12-05T08:36:06.912Z,51.11
2022-12-05T08:38:34.401Z,51.45
2022-12-05T08:41:02.196Z,51.61
2022-12-05T08:43:32.472Z,51.29
2022-12-05T08:45:59.940Z,51.19
2022-12-05T08:48:29.826Z,51.12
2022-12-05T08:50:57.269Z,51.65
2022-12-05T08:53:23.609Z,51.16
2022-12-05T08:55:50.139Z,51.65
2022-12-05T08:58:16.574Z,51.29
2022-12-05T09:00:43.544Z,51.13
2022-12-05T09:03:11.645Z,50.68
2022-12-05T09:05:38.511Z,51.19
2022-12-05T09:08:05.516Z,51.16
2022-12-05T09:10:32.098Z,51.03
2022-12-05T09:13:00.104Z,51.35
2022-12-05T09:15:26.740Z,50.87
2022-12-05T09:17:53.056Z,51.50
2022-12-05T09:20:19.939Z,50.89
2022-12-05T09:22:46.454Z,51.32
2022-12-05T09:25:12.813Z,51.49
2022-12-05T09:27:39.160Z,51.48
2022-12-05T09:30:06.289Z,51.57
2022-12-05T09:32:32.795Z,51.18
2022-12-05T09:34:59.586Z,50.67
2022-12-05T09:37:41.159Z,51.12
2022-12-05T09:40:15.182Z,51.17
2022-12-05T09:43:01.517Z,50.90
2022-12-05T09:45:35.644Z,51.19
2022-12-05T09:48:12.083Z,51.26
2022-12-05T09:50:44.472Z,51.08
2022-12-05T09:53:23.074Z,50.52
2022-12-05T09:55:53.335Z,50.67
2022-12-05T09:58:22.342Z,50.85
2022-12-05T10:00:54.267Z,50.80
2022-12-05T10:03:45.665Z,51.33
2022-12-05T10:06:29.060Z,51.38
2022-12-05T10:09:15.451Z,51.17
2022-12-05T10:12:19.704Z,50.91
2022-12-05T10:15:01.411Z,50.66
2022-12-05T10:17:37.079Z,50.91
2022-12-05T10:20:13.384Z,50.51
2022-12-05T10:23:18.795Z,51.04
2022-12-05T10:25:59.644Z,51.23
2022-12-05T10:28:34.970Z,50.92
2022-12-05T10:31:07.873Z,51.34
2022-12-05T10:33:43.485Z,51.47
2022-12-05T10:36:12.187Z,51.28
2022-12-05T10:38:39.590Z,50.74
2022-12-05T10:41:10.736Z,51.16
2022-12-05T10:43:41.217Z,51.13
2022-12-05T10:46:09.791Z,50.77
2022-12-05T10:48:41.500Z,51.42
2022-12-05T10:51:13.953Z,51.48
2022-12-05T10:53:49.638Z,51.01
2022-12-05T10:56:40.903Z,51.14
2022-12-05T10:59:09.326Z,50.98
2022-12-05T11:01:40.590Z,51.39
2022-12-05T11:04:26.182Z,51.33
2022-12-05T11:06:56.637Z,51.53
2022-12-05T11:09:26.033Z,50.97
2022-12-05T11:12:15.956Z,51.08
2022-12-05T11:14:58.099Z,51.48
2022-12-05T11:17:30.842Z,50.69
2022-12-05T11:19:57.265Z,50.84
2022-12-05T11:22:37.041Z,50.94
2022-12-05T11:25:30.039Z,51.36
2022-12-05T11:28:21.351Z,51.27
2022-12-05T11:30:58.609Z,51.18
2022-12-05T11:33:27.599Z,51.40
2022-12-05T11:36:04.283Z,51.10
2022-12-05T11:38:32.853Z,50.89
2022-12-05T11:41:47.848Z,50.85
2022-12-05T11:44:33.421Z,51.50
2022-12-05T11:47:25.324Z,51.08
2022-12-05T11:50:04.460Z,50.91
2022-12-05T11:52:57.888Z,51.29
2022-12-05T11:55:34.008Z,50.94
2022-12-05T11:58:29.029Z,50.74
2022-12-05T12:01:18.664Z,51.03
2022-12-05T12:03:58.194Z,51.37
2022-12-05T12:06:33.539Z,50.82
2022-12-05T12:09:23.405Z,51.14
2022-12-05T12:12:03.330Z,51.08
2022-12-05T12:14:55.474Z,50.69
2022-12-05T12:17:47.056Z,51.07
2022-12-05T12:20:41.688Z,51.21
2022-12-05T12:23:29.834Z,51.00
2022-12-05T12:26:16.078Z,50.66
2022-12-05T12:28:46.330Z,51.28
2022-12-05T12:31:12.885Z,51.35
2022-12-05T12:33:57.473Z,50.69
2022-12-05T12:36:42.281Z,50.88
2022-12-05T12:39:24.221Z,50.60
2022-12-05T12:42:09.339Z,51.48
2022-12-05T12:44:54.658Z,51.29
2022-12-05T12:47:40.103Z,50.54
2022-12-05T12:50:21.324Z,50.47
2022-12-05T12:53:03.939Z,51.23
2022-12-05T12:55:54.151Z,50.98
2022-12-05T12:58:42.198Z,51.08
2022-12-05T13:01:22.733Z,50.54
2022-12-05T13:04:02.401Z,50.57
2022-12-05T13:06:56.810Z,51.35
2022-12-05T13:09:32.445Z,51.02
2022-12-05T13:12:07.784Z,51.33
2022-12-05T13:14:37.396Z,50.77
2022-12-05T13:17:06.413Z,51.31
2022-12-05T13:19:44.139Z,50.87
2022-12-05T13:22:12.939Z,51.48
2022-12-05T13:24:39.894Z,51.04
2022-12-05T13:27:09.348Z,50.47
2022-12-05T13:29:42.846Z,51.15
2022-12-05T13:32:34.353Z,51.54
2022-12-05T13:35:07.118Z,50.86
2022-12-05T13:37:53.469Z,51.04
2022-12-05T13:40:45.892Z,51.38
2022-12-05T13:43:15.436Z,50.66
2022-12-05T13:45:53.680Z,50.98
2022-12-05T13:48:26.254Z,50.66
2022-12-05T13:51:13.835Z,50.77
2022-12-05T13:53:47.403Z,50.86
2022-12-05T13:56:13.719Z,51.25
2022-12-05T13:58:47.946Z,50.69
2022-12-05T14:01:26.890Z,51.04
2022-12-05T14:03:56.218Z,51.08
2022-12-05T14:06:34.801Z,50.86
2022-12-05T14:09:02.492Z,50.37
2022-12-05T14:11:29.015Z,50.97
2022-12-05T14:13:59.145Z,51.06
2022-12-05T14:16:30.371Z,51.22
2022-12-05T14:19:16.644Z,51.35
2022-12-05T14:21:53.918Z,51.22
2022-12-05T14:24:35.935Z,51.15
2022-12-05T14:27:35.839Z,51.41
2022-12-05T14:30:06.169Z,51.53
2022-12-05T14:32:36.516Z,51.45
2022-12-05T14:35:17.259Z,50.96
2022-12-05T14:37:53.081Z,51.21
2022-12-05T14:40:36.498Z,51.19
2022-12-05T14:43:15.437Z,51.06
2022-12-05T14:45:57.071Z,51.11
2022-12-05T14:48:40.108Z,50.69
2022-12-05T14:51:30.775Z,50.90
2022-12-05T14:54:02.871Z,51.07
2022-12-05T14:56:29.786Z,50.17
2022-12-05T14:59:09.669Z,50.66
2022-12-05T15:01:49.778Z,50.75
2022-12-05T15:04:35.089Z,51.14
2022-12-05T15:07:09.616Z,51.29
2022-12-05T15:09:37.611Z,51.29
2022-12-05T15:12:11.165Z,51.20
2022-12-05T15:14:45.962Z,50.94
2022-12-05T15:17:18.430Z,50.84
2022-12-05T15:19:51.734Z,51.05
2022-12-05T15:22:21.424Z,51.03
2022-12-05T15:24:47.937Z,51.21
2022-12-05T15:27:15.528Z,50.82
2022-12-05T15:29:42.350Z,51.13
2022-12-05T15:32:11.742Z,50.77
2022-12-05T15:34:45.406Z,51.41
2022-12-05T15:37:59.817Z,51.13
2022-12-05T15:40:26.427Z,51.47
2022-12-05T15:42:57.522Z,51.27
2022-12-05T15:45:27.090Z,51.10
2022-12-05T15:48:11.206Z,51.37
2022-12-05T15:50:51.298Z,50.84
2022-12-05T15:53:43.927Z,51.58
2022-12-05T15:56:40.818Z,51.74
2022-12-05T15:59:35.138Z,50.77
2022-12-05T16:02:26.579Z,51.45
2022-12-05T16:04:56.650Z,50.78
2022-12-05T16:07:28.702Z,51.52
2022-12-05T16:10:00.719Z,51.13
2022-12-05T16:12:38.344Z,51.75
2022-12-05T16:15:13.815Z,51.42
2022-12-05T16:17:47.186Z,51.21
2022-12-05T16:20:16.520Z,50.96
2022-12-05T16:22:53.967Z,50.91
2022-12-05T16:25:29.735Z,51.15
2022-12-05T16:28:16.866Z,51.24
2022-12-05T16:30:58.210Z,51.13
2022-12-05T16:33:26.297Z,50.81
2022-12-05T16:35:53.224Z,50.91
2022-12-05T16:38:21.357Z,51.58
2022-12-05T16:40:52.915Z,50.96
2022-12-05T16:43:22.790Z,51.57
2022-12-05T16:45:50.685Z,50.70
2022-12-05T16:48:22.119Z,51.68
2022-12-05T16:50:50.916Z,51.12
2022-12-05T16:53:29.811Z,51.30
2022-12-05T16:55:58.926Z,51.21
2022-12-05T16:58:27.553Z,51.67
2022-12-05T17:01:06.657Z,51.43
2022-12-05T17:03:35.474Z,51.81
2022-12-05T17:06:03.029Z,52.05
2022-12-05T17:08:29.615Z,51.49
2022-12-05T17:10:59.032Z,51.92
2022-12-05T17:13:25.459Z,51.42
2022-12-05T17:15:52.354Z,51.81
2022-12-05T17:18:21.866Z,51.61
2022-12-05T17:20:54.263Z,51.59
2022-12-05T17:23:20.868Z,51.91
2022-12-05T17:25:58.560Z,51.61
2022-12-05T17:28:25.890Z,51.66
2022-12-05T17:30:52.935Z,51.21
2022-12-05T17:33:19.684Z,51.48
2022-12-05T17:35:46.849Z,51.37
2022-12-05T17:38:13.323Z,51.75
2022-12-05T17:40:40.400Z,51.59
2022-12-05T17:43:08.134Z,51.49
2022-12-05T17:45:34.442Z,51.61
2022-12-05T17:48:00.992Z,51.93
2022-12-05T17:50:29.779Z,52.07
2022-12-05T17:53:01.620Z,51.75
2022-12-05T17:55:32.204Z,52.26
2022-12-05T17:57:58.697Z,52.11
2022-12-05T18:00:25.324Z,51.79
2022-12-05T18:02:52.785Z,52.05
2022-12-05T18:05:19.521Z,51.64
2022-12-05T18:07:46.367Z,52.20
2022-12-05T18:10:16.368Z,51.77
2022-12-05T18:12:42.811Z,51.93
2022-12-05T18:15:12.108Z,51.63
2022-12-05T18:17:39.002Z,51.26
2022-12-05T18:20:08.478Z,51.61
2022-12-05T18:22:35.354Z,51.69
2022-12-05T18:25:03.401Z,51.33
2022-12-05T18:27:32.674Z,51.38
2022-12-05T18:30:00.039Z,51.75
2022-12-05T18:32:26.496Z,52.10
2022-12-05T18:34:53.178Z,51.46
2022-12-05T18:37:19.760Z,51.76
2022-12-05T18:39:46.443Z,52.06
2022-12-05T18:42:15.243Z,51.68
2022-12-05T18:44:43.613Z,51.81
2022-12-05T18:47:10.082Z,52.16
2022-12-05T18:49:36.597Z,51.96
2022-12-05T18:52:03.239Z,51.49
2022-12-05T18:54:30.675Z,51.62
2022-12-05T18:56:58.761Z,52.10
2022-12-05T18:59:28.524Z,52.12
2022-12-05T19:01:55.657Z,51.50
2022-12-05T19:04:22.350Z,51.59
2022-12-05T19:06:50.407Z,51.82
2022-12-05T19:09:18.586Z,51.57
2022-12-05T19:11:47.973Z,52.04
2022-12-05T19:14:16.696Z,51.89
2022-12-05T19:16:43.298Z,51.51
2022-12-05T19:19:14.325Z,51.98
2022-12-05T19:21:42.890Z,51.97
2022-12-05T19:24:12.116Z,51.56
2022-12-05T19:26:38.904Z,51.69
2022-12-05T19:29:05.962Z,52.07
2022-12-05T19:31:33.411Z,52.04
2022-12-05T19:34:02.042Z,51.88
2022-12-05T19:36:29.407Z,52.19
2022-12-05T19:38:56.640Z,51.29
2022-12-05T19:41:30.256Z,51.86
2022-12-05T19:44:00.234Z,51.42
2022-12-05T19:46:29.747Z,51.44
2022-12-05T19:48:57.972Z,51.96
2022-12-05T19:51:26.986Z,51.48
2022-12-05T19:53:53.765Z,51.53
2022-12-05T19:56:25.669Z,51.56
2022-12-05T19:58:55.466Z,51.48
2022-12-05T20:01:30.485Z,51.24
2022-12-05T20:04:00.288Z,51.40
2022-12-05T20:06:34.713Z,51.21
2022-12-05T20:09:01.705Z,51.19
2022-12-05T20:11:31.837Z,51.87
2022-12-05T20:14:01.926Z,51.75
2022-12-05T20:16:29.216Z,51.66
2022-12-05T20:19:00.524Z,51.44
2022-12-05T20:21:29.933Z,51.13
2022-12-05T20:23:58.081Z,51.42
2022-12-05T20:26:28.744Z,51.75
2022-12-05T20:28:58.900Z,51.60
2022-12-05T20:31:30.232Z,51.51
2022-12-05T20:33:56.938Z,51.31
2022-12-05T20:36:26.910Z,51.44
2022-12-05T20:38:58.521Z,51.75
2022-12-05T20:41:25.146Z,51.68
2022-12-05T20:43:58.160Z,51.45
2022-12-05T20:46:25.222Z,51.67
2022-12-05T20:48:53.622Z,51.75
2022-12-05T20:51:28.206Z,51.51
2022-12-05T20:53:55.136Z,51.74
2022-12-05T20:56:25.275Z,51.41
2022-12-05T20:58:54.422Z,51.99
2022-12-05T21:01:22.534Z,51.57
2022-12-05T21:03:50.838Z,51.91
2022-12-05T21:06:26.119Z,51.63
2022-12-05T21:08:54.427Z,51.42
2022-12-05T21:11:22.257Z,51.62
2022-12-05T21:13:48.970Z,51.42
2022-12-05T21:16:18.253Z,52.07
2022-12-05T21:18:45.987Z,52.01
2022-12-05T21:21:15.159Z,51.43
2022-12-05T21:23:43.112Z,52.11
2022-12-05T21:26:13.219Z,51.51
2022-12-05T21:28:42.168Z,52.01
2022-12-05T21:31:12.518Z,52.01
2022-12-05T21:33:40.506Z,51.49
2022-12-05T21:36:07.972Z,51.73
2022-12-05T21:38:34.830Z,51.89
2022-12-05T21:41:04.397Z,51.86
2022-12-05T21:43:31.204Z,51.86
2022-12-05T21:45:57.984Z,51.63
2022-12-05T21:48:25.450Z,51.58
2022-12-05T21:50:52.327Z,52.06
2022-12-05T21:53:20.132Z,51.89
2022-12-05T21:55:47.083Z,52.02
2022-12-05T21:58:14.018Z,52.13
2022-12-05T22:00:40.616Z,51.91
2022-12-05T22:03:07.668Z,51.82
2022-12-05T22:05:34.468Z,51.98
2022-12-05T22:08:05.984Z,51.42
2022-12-05T22:10:34.461Z,51.87
2022-12-05T22:13:00.829Z,52.05
2022-12-05T22:15:27.520Z,51.90
2022-12-05T22:17:54.153Z,52.06
2022-12-05T22:20:20.484Z,51.86
2022-12-05T22:22:46.834Z,51.57
2022-12-05T22:25:13.171Z,52.08
2022-12-05T22:27:39.681Z,51.44
2022-12-05T22:30:07.005Z,51.95
2022-12-05T22:32:34.922Z,51.88
2022-12-05T22:35:04.266Z,52.30
2022-12-05T22:37:31.180Z,51.70
2022-12-05T22:39:58.059Z,52.35
2022-12-05T22:42:26.142Z,51.93
2022-12-05T22:44:52.475Z,51.78
2022-12-05T22:47:18.934Z,51.78
2022-12-05T22:49:46.789Z,51.90
2022-12-05T22:52:15.317Z,51.63
2022-12-05T22:54:41.934Z,52.64
2022-12-05T22:57:08.408Z,51.78
2022-12-05T22:59:35.006Z,51.97
2022-12-05T23:02:01.708Z,51.87
2022-12-05T23:04:28.430Z,52.04
2022-12-05T23:06:54.937Z,51.84
2022-12-05T23:09:21.396Z,51.95
2022-12-05T23:11:51.516Z,51.84
2022-12-05T23:14:18.160Z,51.69
2022-12-05T23:16:44.567Z,51.74
2022-12-05T23:19:11.218Z,51.54
2022-12-05T23:21:39.539Z,51.56
2022-12-05T23:24:10.170Z,52.13
2022-12-05T23:26:40.343Z,51.53
2022-12-05T23:29:07.311Z,51.49
2022-12-05T23:31:34.094Z,52.24
2022-12-05T23:34:03.449Z,51.89
2022-12-05T23:36:32.418Z,51.52
2022-12-05T23:38:58.816Z,51.45
2022-12-05T23:41:26.229Z,51.67
2022-12-05T23:43:53.010Z,51.59
2022-12-05T23:46:22.768Z,51.61
2022-12-05T23:48:49.758Z,51.43
2022-12-05T23:51:22.114Z,51.96
2022-12-05T23:53:53.042Z,52.17
2022-12-05T23:56:22.644Z,51.42
2022-12-05T23:58:49.149Z,51.72
